Flight Track Log - Related Links

Times and Time Zones

All times are in EDT time to prevent confusion due to time zone crossing. See the SKW6345 flight status page for this flight to view local times or setup timezone preferences in your user account.

Time Position Orientation Groundspeed Altitude Reporting Facility
EDT Latitude Longitude Course Direction KTS MPH feet Rate Location/Type
Wed 11:47:22 AM 39.9167 -104.7500 237° Southwest 241 277 7,800  Level Denver TRACON
Wed 11:48:22 AM 39.8667 -104.8167 226° Southwest 258 297 10,000 2,000 Climbing Denver TRACON
Wed 11:49:00 AM 39.6880 -104.3672 205° Southwest  Level FlightAware Approximate
Wed 11:49:10 AM 39.8258 -104.8683 224° Southwest 260 299 11,400  Level Denver Center
Wed 11:50:00 AM 39.5864 -104.4352 210° Southwest  Level FlightAware Approximate
Wed 11:50:12 AM 39.7517 -104.9042 200° South 289 333 13,000  Level Denver Center
Wed 11:51:00 AM 39.4835 -104.4999 201° Southwest  Level FlightAware Approximate
Wed 11:51:14 AM 39.6606 -104.9278 191° South 310 357 15,600  Level Denver Center
Wed 11:52:00 AM 39.3951 -104.5931 237° Southwest  Level FlightAware Approximate
Wed 11:52:16 AM 39.5728 -104.9506 191° South 325 374 17,800  Level Denver Center
Wed 11:53:18 AM 39.4772 -104.9756 191° South 327 376 19,600 1,935 Climbing Denver Center
Wed 11:54:20 AM 39.3844 -104.9992 191° South 338 389 21,800 1,935 Climbing Denver Center
Wed 11:55:22 AM 39.2844 -105.0228 190° South 340 391 23,600 1,548 Climbing Denver Center
Wed 11:56:24 AM 39.1950 -105.0461 191° South 346 398 25,000 1,366 Climbing Denver Center
Wed 11:57:25 AM 39.1161 -105.0761 196° South 348 400 26,400 1,742 Climbing Denver Center
Wed 11:58:28 AM 39.0003 -105.1522 207° Southwest 345 397 28,600 1,488 Climbing Denver Center
Wed 11:59:30 AM 38.9125 -105.2072 206° Southwest 349 402 29,500 823 Climbing Denver Center
Wed 12:00:32 PM 38.8225 -105.2664 207° Southwest 356 410 30,300 919 Climbing Denver Center
Wed 12:01:34 PM 38.7292 -105.3267 207° Southwest 370 426 31,400 1,016 Climbing Denver Center
Wed 12:02:36 PM 38.6344 -105.3872 207° Southwest 375 432 32,400 1,113 Climbing Denver Center
Wed 12:03:38 PM 38.5408 -105.4461 206° Southwest 373 429 33,700 1,161 Climbing Denver Center
Wed 12:04:40 PM 38.4469 -105.5056 206° Southwest 373 429 34,800 1,161 Climbing Denver Center
Wed 12:05:42 PM 38.3406 -105.5728 206° Southwest 365 420 36,100 1,065 Climbing Denver Center
Wed 12:06:44 PM 38.2511 -105.6289 206° Southwest 357 411 37,000 435 Climbing Denver Center
Wed 12:07:46 PM 38.1606 -105.6858 206° Southwest 357 411 37,000  Level Denver Center
Wed 12:08:48 PM 38.0669 -105.7431 206° Southwest 367 422 37,000  Level Denver Center
Wed 12:09:50 PM 37.9825 -105.8161 214° Southwest 367 422 37,000  Level Denver Center
Wed 12:10:52 PM 37.9122 -105.9061 225° Southwest 358 412 37,000 -97 Level Denver Center
Wed 12:11:54 PM 37.8378 -105.9961 224° Southwest 364 419 36,800 -484 Descending Denver Center
Wed 12:12:56 PM 37.7550 -106.1031 226° Southwest 388 447 36,000 -387 Descending Denver Center
Wed 12:13:58 PM 37.6811 -106.1969 225° Southwest 393 452 36,000  Level Denver Center
Wed 12:15:24 PM 37.5861 -106.3164 225° Southwest 379 436 36,000  Level Denver Center
Wed 12:16:27 PM 37.4925 -106.4350 225° Southwest 374 430 36,000  Level Denver Center
Wed 12:17:29 PM 37.4197 -106.5281 225° Southwest 388 447 36,000  Level Denver Center
Wed 12:18:31 PM 37.3328 -106.6358 225° Southwest 393 452 36,000  Level Denver Center
Wed 12:19:33 PM 37.2583 -106.7289 225° Southwest 395 455 36,000  Level Denver Center
Wed 12:20:35 PM 37.1731 -106.8361 225° Southwest 390 449 36,000  Level Denver Center
Wed 12:21:37 PM 37.0994 -106.9253 224° Southwest 385 443 36,000  Level Denver Center
Wed 12:22:39 PM 37.0147 -107.0306 225° Southwest 384 442 36,000  Level Denver Center
Wed 12:23:40 PM 36.9428 -107.1186 224° Southwest 379 436 36,000  Level Denver Center
Wed 12:24:42 PM 36.8575 -107.2233 225° Southwest 385 443 36,000  Level Denver Center
Wed 12:25:44 PM 36.7844 -107.3131 225° Southwest 385 443 36,000  Level Denver Center
Wed 12:26:46 PM 36.7114 -107.4028 225° Southwest 384 442 36,000  Level Denver Center
Wed 12:27:48 PM 36.6261 -107.5056 224° Southwest 383 441 36,000  Level Denver Center
Wed 12:28:50 PM 36.5531 -107.5947 224° Southwest 383 441 36,000  Level Denver Center
Wed 12:29:51 PM 36.4786 -107.6839 224° Southwest 388 447 36,000  Level Denver Center
Wed 12:30:54 PM 36.3925 -107.7875 224° Southwest 386 444 36,000  Level Denver Center
Wed 12:31:56 PM 36.3069 -107.8917 224° Southwest 386 444 36,000  Level Denver Center
Wed 12:32:58 PM 36.2328 -107.9800 224° Southwest 386 444 36,000  Level Denver Center
Wed 12:34:00 PM 36.1350 -108.0689 216° Southwest 399 459 36,000  Level Denver Center
Wed 12:35:01 PM 36.0283 -108.1022 194° South 409 471 36,000  Level Denver Center
Wed 12:36:03 PM 35.9222 -108.1353 194° South 408 470 36,000  Level Denver Center
Wed 12:37:05 PM 35.8144 -108.1700 195° South 412 474 36,000  Level Denver Center
Wed 12:38:07 PM 35.6906 -108.2114 195° South 412 474 36,000  Level Denver Center
Wed 12:39:19 PM 35.5506 -108.2575 195° South 409 471 36,000  Level Albuquerque Center
Wed 12:40:21 PM 35.4444 -108.2936 195° South 410 472 36,000  Level Albuquerque Center
Wed 12:41:23 PM 35.3211 -108.3336 195° South 409 471 36,000  Level Albuquerque Center
Wed 12:42:25 PM 35.2303 -108.4003 211° Southwest 400 460 36,000  Level Albuquerque Center
Wed 12:43:27 PM 35.1700 -108.5264 240° Southwest 388 447 36,000  Level Albuquerque Center
Wed 12:44:29 PM 35.1381 -108.6475 252° West 387 445 36,000  Level Albuquerque Center
Wed 12:45:31 PM 35.1006 -108.7672 249° West 389 448 36,000  Level Albuquerque Center
Wed 12:46:33 PM 35.0539 -108.9050 248° West 392 451 36,000  Level Albuquerque Center
Wed 12:47:35 PM 35.0131 -109.0250 247° West 397 457 36,000  Level Albuquerque Center
Wed 12:48:37 PM 34.9631 -109.1636 246° West 398 458 36,000  Level Albuquerque Center
Wed 12:49:39 PM 34.9208 -109.2825 247° West 399 459 36,000  Level Albuquerque Center
Wed 12:50:41 PM 34.8700 -109.4219 246° West 402 463 36,000  Level Albuquerque Center
Wed 12:51:43 PM 34.8244 -109.5367 244° Southwest 397 457 36,000  Level Albuquerque Center
Wed 12:53:00 PM 34.7620 -109.6910 245° Southwest  Level FlightAware Approximate
Wed 12:53:47 PM 34.7297 -109.7969 245° Southwest 403 464 36,000  Level Albuquerque Center
Wed 12:54:49 PM 34.6775 -109.9389 246° West 409 471 36,000  Level Albuquerque Center
Wed 12:55:51 PM 34.6328 -110.0592 246° West 409 471 36,000 -726 Level Albuquerque Center
Wed 12:56:53 PM 34.5819 -110.2069 247° West 420 483 34,500 -1,452 Descending Albuquerque Center
Wed 12:57:55 PM 34.5339 -110.3228 243° Southwest 407 468 33,000 -1,403 Descending Albuquerque Center
Wed 12:58:57 PM 34.4900 -110.4425 246° West 403 464 31,600 -1,392 Descending Albuquerque Center
Wed 01:00:00 PM 34.4472 -110.5683 248° West 405 466 30,100 -1,440 Descending Albuquerque Center
Wed 01:01:02 PM 34.3986 -110.6883 244° Southwest 400 460 28,600 -1,452 Descending Albuquerque Center
Wed 01:02:04 PM 34.3336 -110.8256 240° Southwest 395 455 27,100 -1,306 Descending Albuquerque Center
Wed 01:03:06 PM 34.2592 -110.9194 226° Southwest 389 448 25,900 -1,452 Descending Albuquerque Center
Wed 01:04:08 PM 34.1869 -111.0114 226° Southwest 380 437 24,100 -1,742 Descending Albuquerque Center
Wed 01:05:10 PM 34.1194 -111.1006 228° Southwest 366 421 22,300 -1,790 Descending Albuquerque Center
Wed 01:06:12 PM 34.0478 -111.1919 227° Southwest 370 426 20,400 -1,839 Descending Albuquerque Center
Wed 01:07:14 PM 33.9792 -111.2814 227° Southwest 365 420 18,500 -2,032 Descending Albuquerque Center
Wed 01:08:16 PM 33.9014 -111.3797 226° Southwest 338 389 16,200 -1,694 Descending Albuquerque Center
Wed 01:09:18 PM 33.8517 -111.4606 233° Southwest 299 344 15,000 -1,161 Descending Albuquerque Center
Wed 01:10:20 PM 33.8128 -111.5342 238° Southwest 261 300 13,800 -1,403 Descending Albuquerque Center
Wed 01:11:22 PM 33.7725 -111.6108 238° Southwest 268 308 12,100 -1,548 Descending Albuquerque Center
Wed 01:12:24 PM 33.7331 -111.6856 238° Southwest 265 305 10,600 -1,161 Descending Albuquerque Center
Wed 01:13:26 PM 33.6956 -111.7544 237° Southwest 248 285 9,700 -774 Descending Albuquerque Center
Wed 01:14:28 PM 33.6578 -111.8239 237° Southwest 247 284 9,000 -339 Descending Albuquerque Center
Wed 01:15:30 PM 33.6203 -111.8922 237° Southwest 244 281 9,000 -97 Level Albuquerque Center
Wed 01:16:32 PM 33.5761 -111.9753 237° Southwest 246 283 8,800 -726 Descending Albuquerque Center
Wed 01:17:34 PM 33.5389 -112.0464 238° Southwest 250 288 7,500 -871 Descending Albuquerque Center
Wed 01:18:36 PM 33.5258 -112.1186 258° West 219 252 7,000 -726 Descending Albuquerque Center
Wed 01:19:38 PM 33.5258 -112.1792 270° West 184 212 6,000 -1,016 Descending Albuquerque Center
Wed 01:20:40 PM 33.5064 -112.2303 245° Southwest 197 227 4,900 -1,065 Descending Albuquerque Center
Wed 01:21:42 PM 33.4533 -112.2244 175° South 199 229 3,800 -1,065 Descending Albuquerque Center

Login

Don't have an account? Register now (free) for customized features, flight alerts, and more!